Chokio, Minnesota
Current Conditions -  °F | °C
As of 1:04 AM on Friday 31 Oct 2014 (Local Time) from KMOX Reporting Station
Clear Clear  
Wind Chill: 15°   Ceiling: Unl
Heat Index: 25°   Visibility: 10mi
Dew Point: 21°   Wind: 10mph
Humidity: 86%   Direction: 320°NW
Pressure: 30.51"   Gusts: NA
Location:  45.57°N, 96.17°W
Report Text: KMOX 310604Z AUTO 32009KT 10SM CLR M04/M06 A3051 RMK AO2
Loading
Personal Weather Stations






























Interactive Weather Map
Tropical Storm Tracking
New forecast layout! Learn more

10-Day Weather Forecast

Advertisements
Track Severe Weather on mobile